Time;durP1;ratioP1;P1;durP2;ratioP2;P2;SDS_P1;SDS_P2;PMS_P1;PMS_P2;Temp;Humidity;BMP_temperature;BMP_pressure;BME280_temperature;BME280_humidity;BME280_pressure;Samples;Min_cycle;Max_cycle;Signal;HPM_P1;HPM_P2
2022/06/22 10:25:01;;;;;;;17.90;8.98;;;;;;;20.84;78.01;95707.72;2105031;28;20382;-61
2022/06/22 10:26:16;;;;;;;14.80;8.02;;;;;;;20.77;77.61;95706.66;2079893;28;20116;-61
2022/06/22 10:27:27;;;;;;;14.30;7.38;;;;;;;20.69;77.61;95710.00;2080023;28;20047;-60
2022/06/22 10:28:47;;;;;;;15.80;7.88;;;;;;;20.70;77.95;95710.81;2095692;28;20051;-65
2022/06/22 10:30:14;;;;;;;17.30;8.23;;;;;;;20.58;79.02;95719.84;2088287;28;20056;-66
2022/06/22 10:31:32;;;;;;;16.60;7.80;;;;;;;20.61;77.68;95723.06;2087254;28;20048;-60
2022/06/22 10:33:12;;;;;;;17.35;7.20;;;;;;;20.59;76.91;95713.63;2089853;28;20049;-61
2022/06/22 10:34:38;;;;;;;14.32;7.47;;;;;;;20.56;78.40;95719.19;2087340;28;20063;-60
2022/06/22 10:36:19;;;;;;;18.55;7.90;;;;;;;20.49;77.49;95713.59;2091365;28;20064;-61
2022/06/22 10:37:46;;;;;;;12.82;7.85;;;;;;;20.48;79.38;95717.19;2095832;28;20044;-61
2022/06/22 10:39:08;;;;;;;18.23;8.82;;;;;;;20.37;79.11;95720.81;2095881;28;20507;-61
2022/06/22 10:46:15;;;;;;;17.95;9.10;;;;;;;20.45;78.34;95717.50;2095769;28;20056;-62
2022/06/22 10:47:41;;;;;;;17.33;7.78;;;;;;;20.52;77.17;95715.09;2088413;28;20073;-62
2022/06/22 10:49:03;;;;;;;18.45;7.95;;;;;;;20.43;78.15;95714.16;2079326;28;20519;-63
2022/06/22 10:50:11;;;;;;;19.85;7.82;;;;;;;20.57;77.37;95705.84;2077088;28;20041;-63
2022/06/22 10:51:19;;;;;;;12.85;8.00;;;;;;;20.43;77.60;95709.69;2079656;28;20042;-63
2022/06/22 10:52:51;;;;;;;16.85;8.50;;;;;;;20.49;78.02;95716.22;2081270;28;20462;-64
2022/06/22 10:54:04;;;;;;;14.75;7.95;;;;;;;20.71;77.09;95717.75;2092474;28;20048;-64
2022/06/22 10:55:19;;;;;;;14.55;7.85;;;;;;;20.78;76.63;95720.66;2095834;28;20044;-62
2022/06/22 10:56:43;;;;;;;17.08;7.03;;;;;;;20.70;77.30;95716.09;2095771;28;20051;-64
2022/06/22 10:58:20;;;;;;;13.75;7.22;;;;;;;20.63;77.04;95712.34;2096824;28;20064;-64
2022/06/22 11:00:02;;;;;;;18.10;7.78;;;;;;;20.57;76.64;95724.28;2097439;28;20052;-63
2022/06/22 11:01:43;;;;;;;14.45;8.18;;;;;;;20.57;76.99;95723.47;2096055;28;20037;-62
2022/06/22 11:03:15;;;;;;;23.35;9.25;;;;;;;20.68;76.51;95723.31;2094050;28;20033;-63
2022/06/22 11:04:37;;;;;;;14.77;7.57;;;;;;;20.81;75.84;95721.19;2095298;28;20032;-64
2022/06/22 11:06:19;;;;;;;18.23;8.07;;;;;;;20.78;77.07;95718.84;2095785;28;20036;-64
2022/06/22 11:07:49;;;;;;;21.35;8.35;;;;;;;20.69;76.55;95730.28;2095439;28;20040;-63
2022/06/22 11:09:12;;;;;;;21.55;8.85;;;;;;;20.54;77.28;95739.56;2094212;28;20036;-64
2022/06/22 11:10:37;;;;;;;18.17;8.15;;;;;;;20.65;77.13;95732.34;2092520;28;20059;-63
2022/06/22 11:11:48;;;;;;;18.80;8.57;;;;;;;20.84;76.51;95734.09;2090668;28;20036;-63
2022/06/22 11:13:11;;;;;;;16.17;7.97;;;;;;;20.87;76.22;95731.19;2095813;28;20045;-63
2022/06/22 11:14:23;;;;;;;17.73;8.50;;;;;;;20.92;76.72;95728.13;2096307;28;20049;-65
2022/06/22 11:15:42;;;;;;;17.00;7.97;;;;;;;20.82;76.34;95737.88;2095970;28;20387;-64
2022/06/22 11:17:14;;;;;;;15.02;7.82;;;;;;;20.65;77.07;95731.50;2089483;28;20033;-63
2022/06/22 11:18:43;;;;;;;17.50;7.85;;;;;;;20.68;76.75;95739.13;2087512;28;20045;-64
2022/06/22 11:20:06;;;;;;;15.85;7.63;;;;;;;20.85;76.74;95730.50;2090410;28;20098;-66
2022/06/22 11:21:30;;;;;;;17.98;7.70;;;;;;;20.93;76.97;95730.63;2096236;28;20045;-64
2022/06/22 11:22:35;;;;;;;16.08;7.22;;;;;;;20.89;77.00;95753.00;2087516;28;20049;-64
2022/06/22 11:23:45;;;;;;;18.20;8.65;;;;;;;20.83;78.09;95752.75;2080520;28;20048;-66
2022/06/22 11:24:51;;;;;;;15.50;7.88;;;;;;;20.87;77.26;95754.09;2088494;28;20048;-65
2022/06/22 11:32:07;;;;;;;19.73;8.80;;;;;;;20.60;77.29;95749.56;2095790;28;20055;-64
2022/06/22 11:33:36;;;;;;;14.20;8.50;;;;;;;20.39;78.51;95745.22;2088425;28;20060;-65
2022/06/22 11:34:51;;;;;;;18.83;7.97;;;;;;;20.53;78.29;95745.78;2088533;28;20071;-66
2022/06/22 11:35:52;;;;;;;18.42;8.57;;;;;;;20.57;78.74;95745.41;2082221;28;20056;-64
2022/06/22 11:37:03;;;;;;;13.13;8.02;;;;;;;20.66;78.56;95746.34;2081804;28;20038;-65
2022/06/22 11:38:19;;;;;;;20.88;8.50;;;;;;;20.65;78.39;95740.25;2081980;28;20064;-65
2022/06/22 11:39:26;;;;;;;22.42;8.23;;;;;;;20.64;79.25;95743.03;2081823;28;20045;-64
2022/06/22 11:40:56;;;;;;;17.70;9.38;;;;;;;20.55;78.32;95741.22;2080939;28;20041;-63
2022/06/22 11:42:28;;;;;;;17.10;7.85;;;;;;;20.62;78.02;95753.72;2080975;28;20119;-64
2022/06/22 11:43:55;;;;;;;16.00;8.90;;;;;;;20.63;77.87;95747.47;2078418;28;20443;-66
2022/06/22 11:46:38;;;;;;;20.20;9.23;;;;;;;20.49;79.06;95767.16;2066963;28;20053;-64
2022/06/22 11:47:47;;;;;;;15.30;9.25;;;;;;;20.47;80.04;95766.50;2061479;28;20385;-66
2022/06/22 11:49:03;;;;;;;;;;;;;;;20.42;79.09;95766.06;2068332;28;20049;-64
2022/06/22 11:50:13;;;;;;;19.80;9.55;;;;;;;20.43;79.58;95767.72;2075299;28;20426;-63
2022/06/22 11:51:35;;;;;;;19.83;9.82;;;;;;;20.45;80.84;95763.16;2074783;28;20407;-66
2022/06/22 11:52:58;;;;;;;16.27;9.07;;;;;;;20.46;79.75;95762.16;2081698;28;20042;-63
2022/06/22 11:53:59;;;;;;;18.98;10.32;;;;;;;20.47;79.80;95765.63;2081507;28;20045;-64
2022/06/22 11:55:10;;;;;;;21.50;9.35;;;;;;;20.61;79.94;95757.34;2073614;28;20520;-63
2022/06/22 11:56:35;;;;;;;18.20;9.77;;;;;;;20.51;80.76;95761.75;2082158;28;20050;-60
2022/06/22 11:57:47;;;;;;;15.02;9.10;;;;;;;20.38;81.77;95762.03;2065820;28;20038;-63
2022/06/22 11:59:10;;;;;;;16.92;11.00;;;;;;;20.33;82.59;95761.59;2067748;28;20062;-64
2022/06/22 12:00:11;;;;;;;18.13;11.25;;;;;;;20.13;83.81;95766.03;2081707;28;20076;-64
2022/06/22 12:01:34;;;;;;;17.88;11.07;;;;;;;20.04;84.19;95759.75;2079115;28;20140;-65
2022/06/22 12:02:58;;;;;;;20.55;11.48;;;;;;;19.98;85.03;95757.69;2081030;28;20396;-64
2022/06/22 12:04:25;;;;;;;22.10;12.68;;;;;;;20.10;85.29;95760.19;2081916;28;20037;-61
2022/06/22 12:05:31;;;;;;;22.52;13.48;;;;;;;19.91;85.55;95763.63;2073542;28;20046;-63
2022/06/22 12:06:53;;;;;;;22.08;13.57;;;;;;;19.66;86.13;95755.25;2072239;28;20048;-65
2022/06/22 12:08:10;;;;;;;22.05;13.73;;;;;;;19.67;86.58;95766.63;2076265;28;20037;-63
2022/06/22 12:09:39;;;;;;;26.73;14.48;;;;;;;19.67;87.51;95769.25;2081337;28;20497;-64
2022/06/22 12:11:05;;;;;;;21.60;14.05;;;;;;;19.57;87.19;95772.66;2081497;28;20048;-63
2022/06/22 12:12:46;;;;;;;21.83;14.52;;;;;;;19.48;88.07;95770.81;2061213;28;20042;-62
2022/06/22 12:15:32;;;;;;;23.75;14.88;;;;;;;19.55;87.63;95766.69;2081881;28;21007;-63
2022/06/22 12:16:50;;;;;;;21.33;14.30;;;;;;;19.55;87.64;95771.13;2082702;28;20537;-64
2022/06/22 12:17:58;;;;;;;23.45;15.18;;;;;;;19.52;88.06;95764.31;2082538;28;20151;-62
2022/06/22 12:19:24;;;;;;;21.80;14.00;;;;;;;19.41;87.93;95767.06;2081140;28;20053;-63
2022/06/22 12:20:45;;;;;;;24.40;14.73;;;;;;;19.61;88.17;95766.16;2068528;28;20052;-62
2022/06/22 12:22:14;;;;;;;27.23;16.08;;;;;;;19.39;87.96;95768.97;2075881;28;20048;-64
2022/06/22 12:23:36;;;;;;;24.52;15.13;;;;;;;19.50;88.79;95762.78;2081716;28;20030;-63
2022/06/22 12:25:01;;;;;;;26.08;15.50;;;;;;;19.56;88.08;95763.06;2081078;28;20041;-62
2022/06/22 12:26:29;;;;;;;27.35;16.80;;;;;;;19.30;89.44;95767.13;2076700;28;20427;-62
2022/06/22 12:27:32;;;;;;;24.85;15.95;;;;;;;19.27;89.51;95764.75;2081114;28;20053;-62
2022/06/22 12:29:11;;;;;;;29.50;16.98;;;;;;;19.25;90.00;95764.06;2080355;28;20470;-63
2022/06/22 12:30:25;;;;;;;26.23;16.67;;;;;;;19.46;89.21;95769.28;2077948;28;20054;-61
2022/06/22 12:31:33;;;;;;;30.73;16.30;;;;;;;19.52;89.02;95766.97;2081759;28;20384;-61
2022/06/22 12:33:04;;;;;;;24.05;15.10;;;;;;;19.56;88.86;95762.25;2085505;28;20041;-65
2022/06/22 12:34:29;;;;;;;21.73;16.02;;;;;;;19.48;89.22;95764.72;2085688;28;20041;-59
2022/06/22 12:35:36;;;;;;;24.80;16.15;;;;;;;19.48;89.76;95765.53;2089688;28;20434;-59
2022/06/22 12:36:40;;;;;;;25.15;14.63;;;;;;;19.61;88.30;95763.50;2072973;28;20057;-59
2022/06/22 12:37:44;;;;;;;34.30;17.02;;;;;;;19.49;89.01;95759.31;2065712;28;20042;-59
2022/06/22 12:38:49;;;;;;;28.50;15.95;;;;;;;19.37;89.45;95763.00;2065336;28;20042;-59
2022/06/22 12:39:55;;;;;;;25.13;16.95;;;;;;;19.57;89.97;95759.50;2081594;28;20049;-61
2022/06/22 12:41:01;;;;;;;30.00;17.08;;;;;;;19.67;89.79;95751.63;2073639;28;20411;-59
2022/06/22 12:42:22;;;;;;;24.92;15.45;;;;;;;19.56;89.40;95754.34;2074655;28;20050;-61
2022/06/22 12:43:39;;;;;;;28.45;16.75;;;;;;;19.71;88.88;95758.31;2083913;28;20045;-59
2022/06/22 12:44:46;;;;;;;26.48;16.67;;;;;;;19.52;89.82;95740.63;2083308;28;20045;-59
2022/06/22 12:45:53;;;;;;;26.00;16.95;;;;;;;19.40;89.78;95752.19;2081372;28;20049;-59
2022/06/22 12:47:32;;;;;;;27.85;17.38;;;;;;;19.30;90.27;95746.91;2088559;28;20045;-59
2022/06/22 12:49:06;;;;;;;33.13;18.85;;;;;;;19.23;92.02;95751.03;2080641;28;20046;-59
2022/06/22 12:50:28;;;;;;;32.83;17.75;;;;;;;19.29;91.92;95744.41;2075667;28;20045;-57
2022/06/22 12:51:38;;;;;;;27.25;17.02;;;;;;;19.31;91.26;95742.47;2083480;28;20410;-58
2022/06/22 12:52:43;;;;;;;28.90;18.50;;;;;;;19.41;91.55;95730.19;2090184;28;20418;-59
2022/06/22 12:54:11;;;;;;;33.15;20.08;;;;;;;19.55;91.61;95734.25;2089165;28;20041;-59
2022/06/22 12:55:17;;;;;;;30.30;17.58;;;;;;;19.55;91.28;95735.09;2088566;28;20048;-60
2022/06/22 12:56:32;;;;;;;28.60;18.73;;;;;;;19.52;91.01;95735.34;2081775;28;20054;-60
2022/06/22 12:57:40;;;;;;;30.38;17.83;;;;;;;19.51;91.04;95725.81;2066550;28;20050;-58
2022/06/22 12:58:45;;;;;;;24.95;17.58;;;;;;;19.45;91.07;95731.56;2075741;28;20046;-60
2022/06/22 12:59:46;;;;;;;27.38;17.88;;;;;;;19.34;90.89;95735.13;2074021;28;20037;-59
2022/06/22 13:00:48;;;;;;;27.50;17.55;;;;;;;19.58;91.80;95728.72;2080635;28;20557;-60
2022/06/22 13:01:50;;;;;;;30.85;18.80;;;;;;;19.55;91.52;95726.34;2089185;28;20502;-60
2022/06/22 13:02:52;;;;;;;32.38;18.80;;;;;;;19.61;91.51;95729.25;2080530;28;20045;-59
2022/06/22 13:03:56;;;;;;;30.08;17.83;;;;;;;19.28;91.26;95727.78;2072846;28;20053;-61
2022/06/22 13:05:01;;;;;;;30.25;17.83;;;;;;;19.23;90.71;95727.34;2073708;28;20060;-61
2022/06/22 13:06:03;;;;;;;31.60;16.60;;;;;;;19.18;91.96;95727.72;2089220;28;20053;-59
2022/06/22 13:07:07;;;;;;;30.10;17.95;;;;;;;19.24;92.04;95728.16;2088982;28;20056;-60
2022/06/22 13:08:11;;;;;;;29.42;18.67;;;;;;;19.28;91.99;95727.78;2073219;28;20116;-61
2022/06/22 13:09:12;;;;;;;29.13;19.20;;;;;;;19.18;92.60;95726.91;2081458;28;20038;-59
2022/06/22 13:10:15;;;;;;;29.42;18.75;;;;;;;19.09;92.29;95727.69;2080912;28;20045;-60
2022/06/22 13:11:19;;;;;;;34.05;18.67;;;;;;;19.22;92.14;95717.78;2080910;28;20530;-60
2022/06/22 13:12:28;;;;;;;33.55;18.55;;;;;;;19.14;92.25;95718.44;2072734;28;20058;-61
2022/06/22 13:13:49;;;;;;;29.38;19.85;;;;;;;19.11;92.45;95721.34;2065624;28;20117;-61
2022/06/22 13:14:58;;;;;;;31.83;19.95;;;;;;;19.17;92.73;95718.19;2065577;28;20046;-59
2022/06/22 13:16:01;;;;;;;;;;;;;;;19.13;92.89;95716.75;2067015;28;20440;-60
2022/06/22 13:17:27;;;;;;;25.70;18.15;;;;;;;18.97;92.60;95708.50;2081352;28;19936;-61
2022/06/22 13:18:38;;;;;;;25.95;18.50;;;;;;;19.01;92.60;95711.75;2088692;28;20048;-62
2022/06/22 13:19:56;;;;;;;31.73;19.42;;;;;;;18.99;92.79;95716.28;2088681;28;20669;-62
2022/06/22 13:21:12;;;;;;;29.27;18.15;;;;;;;19.01;93.26;95711.75;2074784;28;20058;-59
2022/06/22 13:22:19;;;;;;;28.85;19.30;;;;;;;19.07;93.05;95709.41;2076636;28;20046;-59
2022/06/22 13:23:47;;;;;;;29.17;19.42;;;;;;;19.10;93.52;95710.94;2081491;28;20518;-59
2022/06/22 13:25:08;;;;;;;30.33;21.88;;;;;;;19.18;93.73;95713.75;2088814;28;20040;-58
2022/06/22 13:26:29;;;;;;;30.17;19.48;;;;;;;19.01;92.81;95715.19;2080665;28;20053;-58
2022/06/22 13:27:43;;;;;;;27.70;20.08;;;;;;;19.08;92.67;95716.31;2078173;28;20045;-60
2022/06/22 13:29:07;;;;;;;29.02;20.27;;;;;;;19.09;92.59;95715.38;2074019;28;20049;-60
2022/06/22 13:30:15;;;;;;;31.67;19.95;;;;;;;19.21;93.37;95715.28;2063904;28;20045;-59
2022/06/22 13:31:19;;;;;;;32.38;20.13;;;;;;;19.37;92.86;95705.09;2066574;28;20130;-61
2022/06/22 13:32:21;;;;;;;33.35;20.92;;;;;;;19.46;92.80;95713.97;2065566;28;20054;-60
2022/06/22 13:33:43;;;;;;;35.75;21.50;;;;;;;19.48;92.07;95707.59;2064642;28;20074;-58
2022/06/22 13:34:48;;;;;;;23.90;16.77;;;;;;;19.57;90.94;95706.00;2084158;28;20044;-58
2022/06/22 13:36:12;;;;;;;21.13;13.82;;;;;;;19.15;88.49;95714.84;2088426;28;20045;-61
2022/06/22 13:37:29;;;;;;;21.25;13.95;;;;;;;19.14;88.96;95704.47;2083453;28;20048;-61
2022/06/22 13:39:06;;;;;;;24.35;14.80;;;;;;;19.16;88.59;95706.00;2066433;28;20057;-60
2022/06/22 13:40:26;;;;;;;22.15;16.48;;;;;;;19.23;89.75;95702.81;2079491;28;20037;-59
2022/06/22 13:41:53;;;;;;;21.48;15.02;;;;;;;19.17;90.43;95715.53;2083301;28;20057;-61
2022/06/22 13:43:15;;;;;;;24.75;15.07;;;;;;;19.18;88.65;95704.03;2084519;28;20044;-61
2022/06/22 13:44:45;;;;;;;26.40;16.20;;;;;;;19.18;88.43;95705.84;2083975;28;20045;-59
2022/06/22 13:46:12;;;;;;;23.70;16.58;;;;;;;19.26;89.23;95711.28;2089150;28;20028;-61
2022/06/22 13:47:23;;;;;;;25.13;15.70;;;;;;;19.43;88.49;95704.53;2080628;28;20061;-61
2022/06/22 13:48:27;;;;;;;23.80;15.23;;;;;;;19.50;88.78;95708.31;2068802;28;20060;-60
2022/06/22 13:49:37;;;;;;;27.58;15.68;;;;;;;19.52;88.89;95709.03;2058491;28;20047;-59
2022/06/22 13:52:28;;;;;;;22.85;16.48;;;;;;;19.79;88.73;95713.69;2084929;28;20049;-60
2022/06/22 13:54:13;;;;;;;26.95;16.42;;;;;;;19.80;89.83;95722.41;2085765;28;20071;-59
2022/06/22 13:55:21;;;;;;;22.88;16.17;;;;;;;19.54;88.43;95715.00;2069832;28;20408;-58
2022/06/22 13:56:47;;;;;;;25.35;16.42;;;;;;;19.65;88.94;95711.41;2078154;28;20408;-58
2022/06/22 13:57:56;;;;;;;25.55;16.13;;;;;;;19.66;89.15;95707.84;2082950;28;20040;-58
2022/06/22 13:58:59;;;;;;;24.10;16.30;;;;;;;19.74;88.61;95710.63;2084276;28;20053;-59
2022/06/22 14:00:15;;;;;;;21.98;15.95;;;;;;;19.85;89.01;95717.56;2085650;28;20040;-58
2022/06/22 14:01:19;;;;;;;26.67;16.92;;;;;;;19.80;89.43;95717.97;2077685;28;20034;-59
2022/06/22 14:02:26;;;;;;;22.73;17.08;;;;;;;19.71;88.66;95713.53;2077712;28;20053;-60
2022/06/22 14:03:34;;;;;;;27.50;15.98;;;;;;;19.57;88.77;95711.25;2064648;28;20065;-59
2022/06/22 14:04:35;;;;;;;20.23;15.80;;;;;;;19.63;88.74;95721.25;2062060;28;20054;-59
2022/06/22 14:05:43;;;;;;;25.63;17.27;;;;;;;19.71;89.35;95716.16;2072464;28;20038;-59
2022/06/22 14:06:51;;;;;;;22.17;16.70;;;;;;;19.80;88.41;95725.88;2077999;28;20049;-58
2022/06/22 14:08:10;;;;;;;21.40;15.75;;;;;;;19.93;88.42;95727.44;2085861;28;20442;-59
2022/06/22 14:09:14;;;;;;;24.85;17.63;;;;;;;19.63;89.13;95721.25;2072578;28;20141;-58
2022/06/22 14:10:37;;;;;;;26.02;18.10;;;;;;;19.45;88.77;95723.69;2072784;28;20034;-58
2022/06/22 14:11:44;;;;;;;24.30;18.58;;;;;;;19.62;89.99;95727.50;2081102;28;20044;-58
2022/06/22 14:12:45;;;;;;;26.30;19.40;;;;;;;19.81;89.69;95717.03;2071703;28;20064;-59
2022/06/22 14:14:02;;;;;;;25.27;19.50;;;;;;;19.93;89.58;95724.81;2071860;28;20037;-56
2022/06/22 14:15:17;;;;;;;25.02;18.15;;;;;;;20.02;89.54;95716.06;2081375;28;20045;-58
2022/06/22 14:16:28;;;;;;;28.42;18.98;;;;;;;19.96;89.01;95722.72;2071675;28;20049;-59
2022/06/22 14:17:42;;;;;;;25.13;19.83;;;;;;;19.97;89.78;95719.13;2073442;28;20447;-59
2022/06/22 14:19:07;;;;;;;24.75;17.92;;;;;;;19.56;88.36;95718.31;2072075;28;20042;-57
2022/06/22 14:20:16;;;;;;;26.58;18.23;;;;;;;19.60;89.32;95717.06;2062967;28;20097;-61
2022/06/22 14:21:22;;;;;;;29.17;18.08;;;;;;;19.63;89.27;95721.25;2058695;28;20058;-59
2022/06/22 14:22:27;;;;;;;25.50;17.92;;;;;;;19.48;90.20;95718.13;2073527;28;20408;-59
2022/06/22 14:23:28;;;;;;;24.67;19.25;;;;;;;19.45;89.26;95720.22;2081886;28;20415;-58
2022/06/22 14:24:46;;;;;;;27.58;18.33;;;;;;;19.31;90.03;95726.69;2080243;28;20056;-58
2022/06/22 14:26:02;;;;;;;26.80;17.00;;;;;;;19.20;89.15;95719.72;2074413;28;20042;-57
2022/06/22 14:27:26;;;;;;;22.73;17.98;;;;;;;19.28;89.72;95727.78;2074107;28;20058;-59
2022/06/22 14:28:36;;;;;;;23.65;17.02;;;;;;;19.55;89.24;95718.44;2075147;28;20046;-59
2022/06/22 14:29:52;;;;;;;25.80;16.90;;;;;;;19.51;87.89;95719.66;2065314;28;20528;-60
2022/06/22 14:31:01;;;;;;;23.33;16.33;;;;;;;19.60;88.12;95718.88;2053065;28;20043;-58
2022/06/22 14:32:08;;;;;;;;;;;;;;;19.82;87.29;95716.03;2061505;28;20521;-57
2022/06/22 14:33:14;;;;;;;23.92;17.40;;;;;;;19.88;89.53;95714.66;2080755;28;19920;-59
2022/06/22 14:34:40;;;;;;;27.08;17.27;;;;;;;19.63;87.17;95710.72;2072694;28;20042;-60
2022/06/22 14:35:52;;;;;;;25.42;17.90;;;;;;;19.96;88.70;95706.91;2078901;28;20051;-59
2022/06/22 14:36:57;;;;;;;18.98;14.98;;;;;;;19.88;87.74;95706.75;2088657;28;20052;-59
2022/06/22 14:38:20;;;;;;;19.52;14.52;;;;;;;19.84;85.86;95713.28;2089438;28;20052;-60
2022/06/22 14:39:28;;;;;;;19.13;13.95;;;;;;;20.00;86.38;95712.75;2080527;28;20053;-58
2022/06/22 14:40:37;;;;;;;19.25;13.60;;;;;;;19.75;86.46;95714.09;2083968;28;20064;-59
2022/06/22 14:41:45;;;;;;;17.30;12.05;;;;;;;19.60;84.43;95701.28;2088683;28;20056;-60
2022/06/22 14:42:49;;;;;;;17.85;11.65;;;;;;;19.60;85.07;95701.28;2073245;28;20527;-57
2022/06/22 14:43:56;;;;;;;22.98;13.20;;;;;;;19.77;85.62;95709.53;2074186;28;20053;-62
2022/06/22 14:45:03;;;;;;;21.48;13.15;;;;;;;19.56;84.07;95704.31;2088895;28;20055;-60
2022/06/22 14:46:25;;;;;;;20.08;13.63;;;;;;;19.52;84.44;95709.03;2089450;28;20045;-60
2022/06/22 14:47:34;;;;;;;20.05;13.43;;;;;;;19.75;84.88;95707.03;2080608;28;20061;-59
2022/06/22 14:48:39;;;;;;;21.48;12.18;;;;;;;19.73;84.64;95706.34;2080888;28;20053;-57
2022/06/22 14:50:01;;;;;;;19.73;12.13;;;;;;;19.89;84.74;95707.59;2089689;28;20045;-59
2022/06/22 14:51:25;;;;;;;16.50;12.23;;;;;;;19.72;83.49;95698.56;2089527;28;20041;-61
2022/06/22 14:53:06;;;;;;;17.15;12.65;;;;;;;19.75;84.66;95704.41;2088363;28;20048;-60
2022/06/22 14:54:41;;;;;;;19.08;12.60;;;;;;;20.02;83.71;95702.88;2080062;28;20127;-60
2022/06/22 14:55:44;;;;;;;18.63;13.10;;;;;;;20.13;84.23;95701.91;2087745;28;20041;-61
2022/06/22 14:56:47;;;;;;;18.45;11.95;;;;;;;20.06;83.78;95706.94;2080202;28;20521;-60
2022/06/22 14:57:59;;;;;;;17.55;11.10;;;;;;;19.57;83.95;95704.19;2064040;28;20041;-60
2022/06/22 14:59:25;;;;;;;19.63;11.27;;;;;;;19.54;84.33;95706.22;2075019;28;20053;-60
2022/06/22 15:00:45;;;;;;;18.45;11.60;;;;;;;19.44;84.71;95703.59;2088430;28;20044;-59
2022/06/22 15:01:57;;;;;;;19.30;11.75;;;;;;;19.50;84.58;95699.59;2088760;28;20052;-59
2022/06/22 15:03:15;;;;;;;21.23;12.60;;;;;;;19.75;85.43;95701.78;2081259;28;20053;-60
2022/06/22 15:04:46;;;;;;;18.90;12.05;;;;;;;19.91;84.49;95700.38;2074528;28;20053;-61
2022/06/22 15:05:52;;;;;;;18.98;12.02;;;;;;;19.97;84.40;95703.31;2080223;28;20055;-60
2022/06/22 15:06:55;;;;;;;19.83;12.13;;;;;;;19.71;83.52;95699.53;2083434;28;20041;-59
2022/06/22 15:08:12;;;;;;;18.38;12.07;;;;;;;19.77;83.97;95689.28;2080677;28;20041;-59
2022/06/22 15:09:20;;;;;;;17.08;11.93;;;;;;;19.90;84.14;95696.91;2088457;28;20056;-61
2022/06/22 15:10:44;;;;;;;20.17;12.88;;;;;;;19.91;84.97;95695.13;2088402;28;20532;-59
2022/06/22 15:13:14;;;;;;;17.45;12.02;;;;;;;20.12;84.57;95682.63;2089951;28;20522;-61
2022/06/22 15:14:19;;;;;;;17.67;11.93;;;;;;;20.20;83.26;95687.22;2081593;28;20045;-61
2022/06/22 15:15:45;;;;;;;18.63;12.75;;;;;;;20.40;83.32;95685.44;2074161;28;20054;-60
2022/06/22 15:16:51;;;;;;;21.75;13.13;;;;;;;20.23;83.91;95682.53;2080374;28;20051;-60
2022/06/22 15:18:10;;;;;;;16.25;12.05;;;;;;;20.28;81.69;95679.44;2082597;28;20049;-62
2022/06/22 15:19:15;;;;;;;15.55;12.63;;;;;;;20.23;83.06;95676.41;2090048;28;20055;-61
2022/06/22 15:20:25;;;;;;;19.85;12.50;;;;;;;20.03;82.77;95681.69;2081049;28;20053;-61
2022/06/22 15:21:32;;;;;;;18.42;12.30;;;;;;;20.01;82.70;95672.25;2083248;28;20045;-60
2022/06/22 15:22:33;;;;;;;19.17;13.15;;;;;;;20.00;83.30;95681.97;2081426;28;20052;-60
2022/06/22 15:23:37;;;;;;;17.35;12.02;;;;;;;19.96;83.76;95680.56;2081109;28;20048;-59
2022/06/22 15:24:39;;;;;;;20.33;11.93;;;;;;;20.07;82.31;95676.13;2081815;28;20405;-60
2022/06/22 15:26:08;;;;;;;21.02;12.05;;;;;;;20.24;83.26;95672.81;2089238;28;20041;-60
2022/06/22 15:27:20;;;;;;;15.48;11.48;;;;;;;20.07;83.83;95676.94;2089909;28;20056;-62
2022/06/22 15:28:29;;;;;;;16.55;12.15;;;;;;;20.20;84.61;95666.97;2083449;28;20045;-59
2022/06/22 15:29:37;;;;;;;20.15;12.25;;;;;;;20.22;84.54;95666.84;2081627;28;20064;-61
2022/06/22 15:30:44;;;;;;;22.00;13.00;;;;;;;20.20;85.60;95671.41;2067633;28;20061;-58
2022/06/22 15:31:55;;;;;;;20.38;12.75;;;;;;;20.04;84.04;95667.50;2075202;28;20042;-61
2022/06/22 15:33:10;;;;;;;18.42;12.40;;;;;;;19.99;84.01;95663.63;2082327;28;20556;-60
2022/06/22 15:34:49;;;;;;;19.42;12.55;;;;;;;19.73;83.59;95669.44;2084116;28;20045;-60
2022/06/22 15:36:12;;;;;;;19.13;13.43;;;;;;;19.95;83.67;95670.16;2086806;28;20044;-61
2022/06/22 15:37:22;;;;;;;16.63;12.10;;;;;;;19.87;83.36;95670.03;2090311;28;20059;-62
2022/06/22 15:38:34;;;;;;;22.42;12.55;;;;;;;19.98;82.82;95665.44;2081886;28;20049;-59
2022/06/22 15:39:39;;;;;;;19.98;12.30;;;;;;;20.07;83.23;95666.41;2077391;28;20057;-62
2022/06/22 15:40:58;;;;;;;18.77;12.63;;;;;;;20.28;82.06;95667.09;2082542;28;20041;-61
2022/06/22 15:42:08;;;;;;;17.70;12.45;;;;;;;20.47;81.03;95666.28;2090366;28;20052;-60
2022/06/22 15:43:14;;;;;;;16.00;12.70;;;;;;;20.67;81.61;95669.72;2089779;28;20060;-61
2022/06/22 15:44:18;;;;;;;17.52;11.43;;;;;;;20.55;80.06;95664.75;2089692;28;20056;-60
2022/06/22 15:45:40;;;;;;;19.63;11.38;;;;;;;20.62;80.39;95666.66;2081631;28;20060;-61
2022/06/22 15:47:05;;;;;;;16.20;11.45;;;;;;;20.93;82.06;95671.75;2079021;28;20383;-61
2022/06/22 15:48:12;;;;;;;18.05;11.75;;;;;;;21.29;79.81;95675.34;2085031;28;20056;-60
2022/06/22 15:49:53;;;;;;;16.67;12.55;;;;;;;22.01;77.06;95665.75;2084842;28;20045;-62
2022/06/22 15:50:59;;;;;;;15.77;11.60;;;;;;;21.81;77.27;95664.22;2089743;28;20052;-62
2022/06/22 15:52:07;;;;;;;17.58;10.70;;;;;;;21.93;77.45;95672.78;2073881;28;20130;-62
2022/06/22 15:53:14;;;;;;;18.45;12.07;;;;;;;21.30;78.79;95676.16;2075757;28;20050;-59
2022/06/22 15:54:46;;;;;;;18.58;11.88;;;;;;;20.86;78.86;95668.00;2081354;28;20045;-62
2022/06/22 15:55:59;;;;;;;19.20;11.73;;;;;;;20.81;79.79;95678.16;2081406;28;20041;-62
2022/06/22 15:57:05;;;;;;;15.93;11.48;;;;;;;20.69;82.74;95683.59;2082695;28;20045;-60
2022/06/22 15:58:17;;;;;;;15.52;12.45;;;;;;;20.55;80.96;95670.00;2089716;28;20053;-61
2022/06/22 15:59:34;;;;;;;17.92;10.60;;;;;;;20.74;80.02;95671.78;2090080;28;20055;-62
2022/06/22 16:00:58;;;;;;;18.58;11.88;;;;;;;20.66;79.16;95672.47;2089309;28;20056;-62
2022/06/22 16:02:01;;;;;;;15.98;11.63;;;;;;;20.63;80.27;95664.84;2077230;28;20064;-62
2022/06/22 16:03:11;;;;;;;18.95;12.38;;;;;;;20.64;80.09;95663.91;2066267;28;20058;-62
2022/06/22 16:04:36;;;;;;;18.23;11.63;;;;;;;20.62;80.18;95660.56;2076105;28;20038;-60
2022/06/22 16:05:56;;;;;;;16.63;11.82;;;;;;;20.46;80.70;95669.03;2084696;28;20048;-63
2022/06/22 16:07:18;;;;;;;15.75;11.75;;;;;;;20.40;81.55;95664.34;2090079;28;20041;-61
2022/06/22 16:08:30;;;;;;;20.13;13.13;;;;;;;20.33;82.65;95656.13;2089502;28;20053;-61
2022/06/22 16:09:57;;;;;;;15.43;11.20;;;;;;;20.32;83.17;95654.47;2090005;28;20049;-60
2022/06/22 16:14:48;;;;;;;16.77;12.02;;;;;;;20.33;83.38;95656.13;2089953;28;20052;-61
2022/06/22 16:15:56;;;;;;;19.77;12.23;;;;;;;20.33;84.16;95645.59;2081667;28;20037;-61
2022/06/22 16:17:02;;;;;;;17.73;12.70;;;;;;;20.26;83.50;95653.25;2081961;28;20048;-62
2022/06/22 16:18:08;;;;;;;19.35;11.93;;;;;;;20.26;84.00;95644.47;2090323;28;20410;-62
2022/06/22 16:19:49;;;;;;;18.20;11.93;;;;;;;20.47;82.83;95645.16;2090228;28;20159;-60
2022/06/22 16:20:50;;;;;;;19.15;12.02;;;;;;;20.60;82.12;95649.31;2090897;28;20048;-62
2022/06/22 16:21:57;;;;;;;15.65;11.18;;;;;;;20.65;83.00;95644.44;2090350;28;20056;-59
2022/06/22 16:23:06;;;;;;;19.00;12.98;;;;;;;20.69;82.52;95651.13;2089538;28;20048;-60
2022/06/22 16:24:17;;;;;;;15.90;11.43;;;;;;;20.51;82.57;95652.78;2074421;28;20046;-61
2022/06/22 16:25:21;;;;;;;19.05;10.63;;;;;;;20.60;80.60;95650.16;2082745;28;20049;-60
2022/06/22 16:26:44;;;;;;;17.67;11.63;;;;;;;20.61;79.33;95648.34;2081629;28;20046;-61
2022/06/22 16:28:07;;;;;;;16.10;12.05;;;;;;;20.65;79.77;95634.72;2084604;28;20044;-61
2022/06/22 16:29:13;;;;;;;17.17;11.63;;;;;;;20.76;80.55;95636.34;2081277;28;20431;-60
2022/06/22 16:30:15;;;;;;;19.30;12.00;;;;;;;20.73;80.71;95636.66;2074283;28;20056;-59
2022/06/22 16:31:25;;;;;;;19.83;12.90;;;;;;;20.70;80.18;95642.22;2089134;28;20048;-59
2022/06/22 16:32:37;;;;;;;16.23;11.95;;;;;;;20.53;83.95;95643.75;2081352;28;20506;-60
2022/06/22 16:34:01;;;;;;;19.30;12.35;;;;;;;20.43;82.66;95643.78;2082846;28;20038;-58